Time;durP1;ratioP1;P1;durP2;ratioP2;P2;SDS_P1;SDS_P2;PMS_P1;PMS_P2;Temp;Humidity;BMP_temperature;BMP_pressure;BME280_temperature;BME280_humidity;BME280_pressure;Samples;Min_cycle;Max_cycle;Signal;HPM_P1;HPM_P2
2021/06/14 00:01:37;;;;;;;3.13;1.83;;;17.70;88.90;;;;;;4993894;28;20076;-89
2021/06/14 00:04:03;;;;;;;3.92;1.88;;;17.70;89.10;;;;;;5017334;28;20033;-90
2021/06/14 00:06:31;;;;;;;5.05;2.50;;;17.70;89.40;;;;;;4994618;28;20029;-89
2021/06/14 00:08:56;;;;;;;4.55;2.28;;;17.60;89.70;;;;;;4994764;28;20030;-89
2021/06/14 00:11:22;;;;;;;3.40;2.10;;;17.50;90.00;;;;;;5010560;28;20652;-89
2021/06/14 00:13:47;;;;;;;3.90;2.22;;;17.50;90.20;;;;;;5022245;28;20021;-88
2021/06/14 00:16:14;;;;;;;4.65;2.38;;;17.40;90.40;;;;;;5016223;28;20117;-89
2021/06/14 00:18:39;;;;;;;4.28;2.22;;;17.30;90.60;;;;;;4993416;28;20085;-91
2021/06/14 00:21:11;;;;;;;6.22;2.58;;;17.30;90.70;;;;;;4985124;28;20045;-88
2021/06/14 00:23:38;;;;;;;4.15;2.17;;;17.30;90.90;;;;;;5004081;28;20022;-87
2021/06/14 00:26:09;;;;;;;4.28;2.38;;;17.20;91.00;;;;;;4993044;28;20117;-89
2021/06/14 00:28:39;;;;;;;4.00;2.30;;;17.20;91.10;;;;;;4993306;28;20030;-89
2021/06/14 00:31:05;;;;;;;3.55;2.00;;;17.10;91.30;;;;;;4993701;28;20022;-89
2021/06/14 00:33:31;;;;;;;3.53;2.05;;;17.00;91.40;;;;;;4993086;28;20022;-88
2021/06/14 00:35:57;;;;;;;5.15;2.45;;;17.00;91.60;;;;;;5026221;28;20735;-89
2021/06/14 00:38:22;;;;;;;4.55;2.05;;;17.00;91.80;;;;;;5012776;28;20072;-89
2021/06/14 00:40:49;;;;;;;4.00;2.45;;;17.00;91.90;;;;;;5028422;28;20033;-89
2021/06/14 00:43:15;;;;;;;4.60;2.35;;;16.90;92.00;;;;;;5012974;28;20774;-90
2021/06/14 00:45:50;;;;;;;4.15;2.40;;;16.90;92.20;;;;;;5022903;28;20032;-89
2021/06/14 00:48:16;;;;;;;4.63;2.72;;;16.90;92.30;;;;;;4997429;28;20580;-88
2021/06/14 00:50:52;;;;;;;5.68;2.17;;;16.80;92.40;;;;;;4993063;28;20118;-87
2021/06/14 00:53:22;;;;;;;6.82;2.78;;;16.90;92.50;;;;;;4993168;28;20028;-89
2021/06/14 00:55:48;;;;;;;4.15;2.30;;;16.90;92.50;;;;;;4992225;28;20081;-89
2021/06/14 00:58:15;;;;;;;4.50;2.47;;;16.90;92.60;;;;;;4994885;28;20061;-89
2021/06/14 01:00:41;;;;;;;4.63;2.17;;;16.80;92.60;;;;;;4996885;28;20109;-89
2021/06/14 01:03:07;;;;;;;3.50;2.15;;;16.80;92.70;;;;;;4996142;28;20065;-89
2021/06/14 01:05:38;;;;;;;3.88;2.17;;;16.80;92.70;;;;;;4996601;28;20037;-89
2021/06/14 01:08:06;;;;;;;3.90;2.33;;;16.70;92.80;;;;;;5006519;28;20471;-87
2021/06/14 01:10:31;;;;;;;4.72;2.47;;;16.80;93.00;;;;;;5010103;28;20017;-88
2021/06/14 01:13:31;;;;;;;5.20;2.53;;;16.80;93.10;;;;;;5024838;28;20479;-87
2021/06/14 01:16:34;;;;;;;4.53;2.63;;;16.70;93.10;;;;;;5025291;28;20033;-89
2021/06/14 01:19:38;;;;;;;6.03;2.43;;;16.70;93.30;;;;;;5011077;28;20136;-90
2021/06/14 01:22:12;;;;;;;5.55;2.30;;;16.60;93.50;;;;;;5023432;28;20743;-88
2021/06/14 01:25:12;;;;;;;4.47;2.00;;;16.60;93.60;;;;;;4999837;28;20130;-89
2021/06/14 01:27:44;;;;;;;3.95;2.10;;;16.50;93.70;;;;;;5011888;28;20120;-89
2021/06/14 01:30:17;;;;;;;4.67;2.67;;;16.50;93.80;;;;;;5017395;28;20125;-90
2021/06/14 01:32:44;;;;;;;4.15;2.40;;;16.50;93.90;;;;;;5003356;28;20265;-90
2021/06/14 01:35:13;;;;;;;4.72;2.30;;;16.50;94.00;;;;;;4999726;28;20065;-89
2021/06/14 01:37:46;;;;;;;3.72;2.30;;;16.50;94.00;;;;;;4999443;28;20022;-89
2021/06/14 01:40:15;;;;;;;4.70;2.40;;;16.40;94.10;;;;;;4999411;28;20040;-90
2021/06/14 01:42:42;;;;;;;4.40;2.42;;;16.40;94.20;;;;;;4999080;28;20014;-90
2021/06/14 01:45:08;;;;;;;4.18;2.10;;;16.40;94.30;;;;;;4998920;28;20112;-90
2021/06/14 01:47:33;;;;;;;5.53;2.35;;;16.40;94.40;;;;;;4999286;28;20032;-90
2021/06/14 01:50:00;;;;;;;4.53;2.35;;;16.30;94.50;;;;;;4998846;28;20468;-88
2021/06/14 01:52:26;;;;;;;5.25;2.65;;;16.30;94.70;;;;;;5015994;28;20018;-89
2021/06/14 01:54:53;;;;;;;4.32;2.50;;;16.30;94.80;;;;;;4998036;28;20615;-89
2021/06/14 01:57:18;;;;;;;4.43;2.22;;;16.20;94.90;;;;;;4998814;28;20455;-90
2021/06/14 01:59:45;;;;;;;4.32;2.50;;;16.20;95.00;;;;;;4999258;28;20028;-90
2021/06/14 02:02:12;;;;;;;4.97;2.50;;;16.20;95.20;;;;;;4999084;28;20105;-90
2021/06/14 02:04:42;;;;;;;5.20;2.80;;;16.10;95.30;;;;;;4998973;28;20026;-89
2021/06/14 02:07:09;;;;;;;3.75;2.50;;;16.10;95.40;;;;;;4998715;28;20534;-89
2021/06/14 02:09:34;;;;;;;5.20;2.78;;;16.10;95.50;;;;;;4998866;28;20038;-89
2021/06/14 02:12:03;;;;;;;4.70;2.40;;;16.10;95.60;;;;;;4998452;28;20025;-91
2021/06/14 02:14:31;;;;;;;6.38;2.70;;;16.00;95.60;;;;;;4998997;28;20033;-89
2021/06/14 02:17:00;;;;;;;5.57;2.67;;;16.00;95.70;;;;;;4998289;28;20471;-90
2021/06/14 02:19:26;;;;;;;6.28;2.72;;;16.00;95.80;;;;;;4997718;28;20365;-90
2021/06/14 02:21:51;;;;;;;4.88;2.58;;;15.90;95.90;;;;;;4998861;28;20032;-89
2021/06/14 02:24:17;;;;;;;4.82;2.50;;;16.00;96.00;;;;;;4996982;28;20022;-89
2021/06/14 02:26:44;;;;;;;6.55;3.13;;;15.90;96.10;;;;;;5015681;28;20057;-89
2021/06/14 02:29:10;;;;;;;4.60;2.60;;;15.90;96.20;;;;;;5015918;28;20119;-87
2021/06/14 02:31:37;;;;;;;4.95;2.60;;;15.80;96.30;;;;;;4998522;28;20022;-89
2021/06/14 02:34:05;;;;;;;3.38;2.40;;;15.80;96.50;;;;;;4997849;28;20025;-89
2021/06/14 02:36:31;;;;;;;4.95;2.58;;;15.80;96.60;;;;;;4998039;28;20026;-87
2021/06/14 02:39:01;;;;;;;4.20;2.72;;;15.80;96.70;;;;;;5015352;28;20084;-90
2021/06/14 02:41:27;;;;;;;4.65;2.80;;;15.70;96.90;;;;;;4997900;28;20049;-89
2021/06/14 02:43:54;;;;;;;4.85;2.78;;;15.70;96.90;;;;;;4998373;28;20049;-89
2021/06/14 02:46:20;;;;;;;5.78;2.83;;;15.70;97.10;;;;;;4998126;28;20014;-88
2021/06/14 02:48:48;;;;;;;6.05;2.80;;;15.60;97.20;;;;;;4998128;28;20026;-88
2021/06/14 02:51:15;;;;;;;5.80;3.33;;;15.60;97.40;;;;;;5015572;28;20017;-89
2021/06/14 02:53:43;;;;;;;4.53;2.72;;;15.60;97.50;;;;;;4997539;28;20137;-88
2021/06/14 02:56:11;;;;;;;5.32;2.47;;;15.60;97.60;;;;;;5014930;28;20072;-88
2021/06/14 02:58:39;;;;;;;5.68;3.03;;;15.50;97.70;;;;;;4998306;28;20649;-89
2021/06/14 03:01:08;;;;;;;6.07;3.33;;;15.50;97.80;;;;;;4998291;28;20018;-88
2021/06/14 03:03:36;;;;;;;4.65;2.55;;;15.40;97.90;;;;;;4997854;28;20026;-88
2021/06/14 03:06:04;;;;;;;4.75;2.97;;;15.40;98.10;;;;;;5015215;28;20033;-90
2021/06/14 03:08:31;;;;;;;4.97;2.47;;;15.30;98.10;;;;;;4998117;28;20041;-88
2021/06/14 03:10:58;;;;;;;5.55;3.00;;;15.30;98.30;;;;;;4998239;28;20135;-89
2021/06/14 03:13:24;;;;;;;4.90;2.92;;;15.30;98.30;;;;;;4997940;28;20033;-87
2021/06/14 03:15:50;;;;;;;5.80;3.00;;;15.30;98.50;;;;;;4997941;28;20026;-88
2021/06/14 03:18:18;;;;;;;4.93;2.53;;;15.20;98.60;;;;;;4997758;28;20048;-88
2021/06/14 03:20:46;;;;;;;5.50;2.90;;;15.20;98.60;;;;;;4998207;28;20659;-89
2021/06/14 03:23:14;;;;;;;6.15;3.42;;;15.20;98.70;;;;;;4997889;28;20018;-88
2021/06/14 03:25:40;;;;;;;5.45;3.20;;;15.20;98.70;;;;;;4997904;28;20032;-89
2021/06/14 03:28:07;;;;;;;5.35;3.25;;;15.30;98.70;;;;;;4997350;28;20030;-89
2021/06/14 03:30:33;;;;;;;6.00;3.20;;;15.20;98.80;;;;;;4997538;28;20029;-89
2021/06/14 03:33:04;;;;;;;4.97;3.22;;;15.20;98.80;;;;;;5015293;28;20427;-88
2021/06/14 03:35:30;;;;;;;6.13;3.28;;;15.30;98.90;;;;;;4997121;28;20434;-88
2021/06/14 03:37:55;;;;;;;6.03;2.97;;;15.30;99.00;;;;;;4997393;28;20045;-89
2021/06/14 03:40:21;;;;;;;5.47;3.50;;;15.20;99.00;;;;;;4997422;28;20072;-90
2021/06/14 03:42:47;;;;;;;5.00;2.90;;;15.30;99.00;;;;;;4997046;28;20491;-89
2021/06/14 03:45:13;;;;;;;5.65;3.25;;;15.30;99.00;;;;;;4997207;28;20022;-89
2021/06/14 03:47:39;;;;;;;5.60;3.63;;;15.30;99.10;;;;;;5014576;28;20443;-89
2021/06/14 03:50:06;;;;;;;5.30;3.33;;;15.30;99.20;;;;;;4997369;28;20026;-89
2021/06/14 03:52:32;;;;;;;5.13;3.25;;;15.30;99.30;;;;;;4996820;28;20037;-89
2021/06/14 03:54:57;;;;;;;6.25;3.40;;;15.20;99.30;;;;;;4997030;28;20026;-90
2021/06/14 03:57:23;;;;;;;6.15;3.67;;;15.30;99.40;;;;;;5014518;28;20945;-89
2021/06/14 03:59:49;;;;;;;5.55;3.40;;;15.20;99.40;;;;;;5014692;28;20419;-89
2021/06/14 04:02:14;;;;;;;6.30;3.50;;;15.30;99.50;;;;;;4997544;28;20029;-90
2021/06/14 04:04:52;;;;;;;6.78;3.65;;;15.30;99.50;;;;;;4997224;28;20057;-89
2021/06/14 04:07:18;;;;;;;5.88;3.30;;;15.30;99.50;;;;;;4996959;28;20026;-89
2021/06/14 04:09:44;;;;;;;6.45;3.30;;;15.30;99.60;;;;;;4996697;28;20065;-89
2021/06/14 04:12:10;;;;;;;5.45;3.50;;;15.30;99.60;;;;;;4996820;28;20160;-91
2021/06/14 04:14:37;;;;;;;6.50;3.83;;;15.30;99.70;;;;;;4997039;28;20028;-88
2021/06/14 04:17:03;;;;;;;6.50;3.45;;;15.30;99.80;;;;;;4996994;28;20030;-89
2021/06/14 04:19:28;;;;;;;5.38;3.28;;;15.30;99.80;;;;;;4996762;28;20080;-89
2021/06/14 04:21:54;;;;;;;6.70;3.80;;;15.30;99.90;;;;;;5016589;28;20021;-89
2021/06/14 04:24:20;;;;;;;7.63;3.65;;;15.30;99.90;;;;;;5013553;28;20022;-89
2021/06/14 04:26:45;;;;;;;6.75;3.53;;;15.30;99.90;;;;;;5014048;28;20034;-89
2021/06/14 04:29:11;;;;;;;6.70;3.30;;;15.40;99.90;;;;;;5012965;28;20053;-88
2021/06/14 04:31:37;;;;;;;7.38;3.45;;;15.40;99.90;;;;;;4996498;28;20072;-88
2021/06/14 04:34:02;;;;;;;6.47;3.63;;;15.50;99.90;;;;;;5013090;28;20069;-89
2021/06/14 04:36:28;;;;;;;5.88;3.47;;;15.50;99.90;;;;;;5007374;28;20101;-90
2021/06/14 04:38:54;;;;;;;6.75;3.53;;;15.50;99.90;;;;;;4994112;28;20048;-91
2021/06/14 04:41:19;;;;;;;6.35;3.50;;;15.60;99.90;;;;;;4995402;28;20025;-89
2021/06/14 04:43:45;;;;;;;5.90;3.58;;;15.70;99.90;;;;;;4996389;28;20757;-89
2021/06/14 04:46:36;;;;;;;6.47;3.95;;;15.70;99.90;;;;;;4996006;28;20420;-91
2021/06/14 04:49:02;;;;;;;5.30;3.50;;;15.80;99.90;;;;;;4999294;28;20080;-88
2021/06/14 04:51:28;;;;;;;7.28;3.42;;;15.80;99.90;;;;;;4999173;28;20085;-91
2021/06/14 04:53:53;;;;;;;6.63;3.67;;;15.80;99.90;;;;;;5014839;28;20072;-91
2021/06/14 04:56:19;;;;;;;5.38;3.28;;;15.90;99.90;;;;;;5017349;28;20456;-90
2021/06/14 04:58:45;;;;;;;5.60;3.47;;;16.00;99.90;;;;;;5004847;23;20050;-82
2021/06/14 05:01:13;;;;;;;8.20;4.10;;;16.10;99.80;;;;;;5002670;28;20029;-82
2021/06/14 05:03:39;;;;;;;9.23;4.47;;;16.20;99.70;;;;;;5028282;28;20030;-82
2021/06/14 05:06:05;;;;;;;6.15;3.78;;;16.30;99.50;;;;;;5033116;28;20026;-82
2021/06/14 05:08:36;;;;;;;6.20;3.92;;;16.40;99.30;;;;;;4998470;28;20469;-82
2021/06/14 05:11:04;;;;;;;7.85;3.60;;;16.50;99.20;;;;;;4998950;28;20057;-82
2021/06/14 05:13:33;;;;;;;8.65;4.32;;;16.60;99.00;;;;;;4997033;28;20026;-82
2021/06/14 05:16:32;;;;;;;;;;;;;;;;;;;;;
2021/06/14 05:18:58;;;;;;;6.15;3.60;;;16.70;98.60;;;;;;5014666;28;20022;-82
2021/06/14 05:21:36;;;;;;;6.00;3.40;;;16.80;98.50;;;;;;5017520;28;20061;-83
2021/06/14 05:24:52;;;;;;;6.50;3.83;;;16.90;98.30;;;;;;5004416;28;20026;-82
2021/06/14 05:27:20;;;;;;;6.50;3.70;;;16.90;98.20;;;;;;5014441;28;20569;-82
2021/06/14 05:29:56;;;;;;;7.80;3.38;;;17.00;98.10;;;;;;4997856;28;20044;-82
2021/06/14 05:32:27;;;;;;;6.45;3.47;;;17.00;98.00;;;;;;5015902;28;20080;-80
2021/06/14 05:34:55;;;;;;;6.78;3.22;;;17.10;97.90;;;;;;4999741;28;20493;-81
2021/06/14 05:37:21;;;;;;;7.22;3.60;;;17.20;97.80;;;;;;5003485;28;20021;-81
2021/06/14 05:39:47;;;;;;;7.03;3.55;;;17.20;97.70;;;;;;4999613;28;20025;-81
2021/06/14 05:42:12;;;;;;;5.20;3.17;;;17.30;97.60;;;;;;4982613;28;20577;-81
2021/06/14 05:44:48;;;;;;;8.20;3.63;;;17.40;97.50;;;;;;5014834;28;20025;-81
2021/06/14 05:47:19;;;;;;;6.45;3.58;;;17.40;97.30;;;;;;5016793;28;20068;-81
2021/06/14 05:49:44;;;;;;;7.63;3.53;;;17.50;97.10;;;;;;4999156;28;20120;-82
2021/06/14 05:55:02;;;;;;;7.03;3.15;;;17.70;96.90;;;;;;5015942;28;20550;-82
2021/06/14 05:57:40;;;;;;;6.28;3.33;;;17.80;97.00;;;;;;5015180;28;20083;-82
2021/06/14 06:00:25;;;;;;;5.63;3.10;;;17.80;96.60;;;;;;4998125;28;20136;-82
2021/06/14 06:02:56;;;;;;;6.38;3.33;;;17.90;96.50;;;;;;4997618;28;20474;-82
2021/06/14 06:05:51;;;;;;;6.57;3.40;;;18.00;96.40;;;;;;5015562;28;20383;-83
2021/06/14 06:08:19;;;;;;;7.18;3.95;;;18.10;96.30;;;;;;4998349;28;20026;-82
2021/06/14 06:11:41;;;;;;;5.40;3.50;;;18.10;96.20;;;;;;5015938;28;20390;-82
2021/06/14 06:14:54;;;;;;;5.38;3.08;;;18.20;96.10;;;;;;4941946;28;20032;-82
2021/06/14 06:17:32;;;;;;;8.40;3.75;;;18.30;96.00;;;;;;4974620;28;20029;-83
2021/06/14 06:23:17;;;;;;;;;;;;;;;;;;;;;
2021/06/14 06:25:46;;;;;;;6.93;3.78;;;18.50;95.70;;;;;;5015010;28;20034;-82
2021/06/14 06:28:34;;;;;;;6.28;3.38;;;18.60;95.70;;;;;;4997666;28;20042;-82
2021/06/14 06:31:11;;;;;;;6.05;4.18;;;18.60;95.60;;;;;;4982416;28;20025;-83
2021/06/14 06:33:49;;;;;;;7.25;3.67;;;18.60;95.60;;;;;;5016130;28;20026;-82
2021/06/14 06:36:37;;;;;;;4.70;2.90;;;18.70;95.60;;;;;;5014998;28;20455;-82
2021/06/14 06:39:18;;;;;;;5.97;2.95;;;18.70;95.60;;;;;;4987257;28;20042;-82
2021/06/14 06:42:25;;;;;;;7.85;3.78;;;18.80;95.70;;;;;;5011676;28;20441;-83
2021/06/14 06:44:57;;;;;;;5.32;3.13;;;18.80;95.60;;;;;;4997954;28;20062;-81
2021/06/14 06:47:25;;;;;;;5.28;3.08;;;18.90;95.50;;;;;;5015605;28;20029;-82
2021/06/14 06:49:58;;;;;;;8.25;4.00;;;19.00;95.50;;;;;;5008207;28;20034;-82
2021/06/14 06:52:28;;;;;;;6.82;3.92;;;19.00;95.50;;;;;;5037755;28;20018;-81
2021/06/14 06:55:05;;;;;;;6.05;3.38;;;19.00;95.50;;;;;;5021678;28;20034;-81
2021/06/14 06:57:37;;;;;;;5.55;3.17;;;19.10;95.50;;;;;;4997808;28;20024;-81
2021/06/14 07:00:25;;;;;;;7.45;3.65;;;19.10;95.40;;;;;;4983035;28;20493;-82
2021/06/14 07:03:16;;;;;;;7.05;3.92;;;19.20;95.20;;;;;;4994786;28;20379;-82
2021/06/14 07:05:58;;;;;;;5.25;3.10;;;19.30;95.20;;;;;;4971625;28;20379;-82
2021/06/14 07:08:34;;;;;;;5.00;2.95;;;19.30;95.10;;;;;;4974076;28;20031;-82
2021/06/14 07:14:21;;;;;;;7.57;2.83;;;19.50;95.30;;;;;;4931726;29;20028;-81
2021/06/14 07:17:20;;;;;;;5.93;3.75;;;19.60;95.00;;;;;;4933339;29;20027;-83
2021/06/14 07:19:49;;;;;;;5.50;3.08;;;19.70;94.80;;;;;;4932713;29;20088;-84
2021/06/14 07:22:52;;;;;;;6.53;3.13;;;19.80;94.70;;;;;;4917961;29;20053;-83
2021/06/14 07:25:51;;;;;;;5.03;2.70;;;19.80;94.50;;;;;;4941879;28;20124;-83
2021/06/14 07:28:39;;;;;;;;;;;;;;;;;;;;;
2021/06/14 07:34:02;;;;;;;4.80;2.28;;;20.10;94.10;;;;;;4957414;28;20022;-82
2021/06/14 07:36:39;;;;;;;5.38;2.88;;;20.10;94.10;;;;;;4958202;28;20023;-82
2021/06/14 07:39:48;;;;;;;5.85;2.88;;;20.20;94.00;;;;;;4980075;28;20118;-84
2021/06/14 07:46:17;;;;;;;6.20;2.97;;;20.40;93.70;;;;;;4971005;28;20026;-84
2021/06/14 07:48:52;;;;;;;6.68;3.40;;;20.60;93.60;;;;;;4942763;28;20076;-84
2021/06/14 07:51:28;;;;;;;7.30;3.15;;;20.60;93.50;;;;;;4977889;28;20034;-83
2021/06/14 07:54:03;;;;;;;5.85;3.33;;;20.80;93.40;;;;;;4994263;28;20379;-83
2021/06/14 07:56:33;;;;;;;6.75;3.65;;;20.90;93.20;;;;;;4977031;28;20026;-84
2021/06/14 07:59:06;;;;;;;6.82;3.50;;;20.90;93.00;;;;;;4961300;28;20054;-83
2021/06/14 08:01:41;;;;;;;6.00;3.42;;;21.00;93.00;;;;;;4973704;28;20034;-83
2021/06/14 08:04:17;;;;;;;5.60;3.03;;;21.20;93.00;;;;;;4987782;28;20483;-84
2021/06/14 08:06:48;;;;;;;6.55;3.10;;;21.20;93.00;;;;;;4976560;28;20549;-83
2021/06/14 08:09:58;;;;;;;;;;;;;;;;;;;;;
2021/06/14 08:12:36;;;;;;;5.70;2.58;;;21.40;92.70;;;;;;4993497;28;20040;-84
2021/06/14 08:15:19;;;;;;;8.02;2.97;;;21.50;92.50;;;;;;4977810;28;20481;-85
2021/06/14 08:17:59;;;;;;;5.35;2.88;;;21.60;92.20;;;;;;4977014;28;20057;-84
2021/06/14 08:26:12;;;;;;;6.75;3.20;;;21.80;91.10;;;;;;4993768;28;20136;-85
2021/06/14 08:28:41;;;;;;;5.85;2.90;;;21.90;90.90;;;;;;4976690;28;20022;-84
2021/06/14 08:31:08;;;;;;;6.38;3.00;;;22.00;90.90;;;;;;4993816;28;20030;-84
2021/06/14 08:33:36;;;;;;;6.47;2.88;;;22.10;90.80;;;;;;4993071;28;20128;-83
2021/06/14 08:39:44;;;;;;;;;;;;;;;;;;;;;
2021/06/14 08:42:00;;;;;;;5.60;2.90;;;22.50;90.50;;;;;;4977004;28;20034;-81
2021/06/14 08:44:33;;;;;;;5.50;3.03;;;22.50;90.30;;;;;;4985372;28;20011;-82
2021/06/14 08:47:03;;;;;;;7.55;3.13;;;22.60;90.20;;;;;;4993513;28;20015;-83
2021/06/14 08:50:35;;;;;;;;;;;;;;;;;;;;;
2021/06/14 08:56:50;;;;;;;7.00;2.95;;;22.90;89.30;;;;;;4824687;29;20073;-84
2021/06/14 08:59:28;;;;;;;4.82;3.00;;;23.10;87.10;;;;;;4908879;29;20113;-82
2021/06/14 09:02:08;;;;;;;5.60;2.85;;;23.20;84.80;;;;;;4952801;29;20074;-82
2021/06/14 09:05:04;;;;;;;7.35;3.05;;;23.40;83.50;;;;;;4995093;28;20026;-82
2021/06/14 09:07:51;;;;;;;5.90;3.00;;;23.50;83.00;;;;;;4995950;28;20034;-83
2021/06/14 09:10:38;;;;;;;8.15;3.22;;;23.60;82.10;;;;;;4995444;28;20449;-82
2021/06/14 09:13:15;;;;;;;7.57;3.35;;;23.70;79.70;;;;;;4979957;28;20057;-82
2021/06/14 09:15:49;;;;;;;6.25;3.05;;;23.70;80.30;;;;;;5013770;28;20088;-83
2021/06/14 09:18:21;;;;;;;7.18;3.15;;;23.80;80.50;;;;;;5012712;28;20109;-83
2021/06/14 09:21:10;;;;;;;7.50;3.42;;;23.90;79.90;;;;;;4995461;28;20072;-83
2021/06/14 09:23:53;;;;;;;6.60;3.65;;;24.00;80.10;;;;;;5013226;28;20026;-83
2021/06/14 09:26:35;;;;;;;6.82;3.55;;;24.10;79.10;;;;;;4994796;28;20378;-83
2021/06/14 09:29:39;;;;;;;14.23;5.63;;;24.20;78.10;;;;;;4995146;28;20034;-82
2021/06/14 09:32:10;;;;;;;8.50;4.45;;;24.30;76.50;;;;;;4984587;28;20049;-83
2021/06/14 09:34:42;;;;;;;9.57;5.00;;;25.00;77.00;;;;;;5015008;28;20038;-82
2021/06/14 09:37:12;;;;;;;7.35;4.18;;;26.00;75.20;;;;;;4998562;28;20083;-83
2021/06/14 09:39:40;;;;;;;8.45;5.40;;;27.10;73.90;;;;;;4999291;28;20381;-83
2021/06/14 09:42:27;;;;;;;7.97;4.10;;;27.90;70.10;;;;;;5013455;28;20050;-83
2021/06/14 09:45:07;;;;;;;9.10;3.83;;;28.50;69.90;;;;;;5008184;28;20028;-84
2021/06/14 09:47:37;;;;;;;7.22;3.95;;;29.20;69.30;;;;;;5024101;28;20034;-83
2021/06/14 09:50:08;;;;;;;13.93;5.38;;;29.70;68.40;;;;;;5003247;28;20076;-83
2021/06/14 09:52:34;;;;;;;7.40;4.85;;;30.10;66.80;;;;;;5022514;28;20033;-83
2021/06/14 09:55:17;;;;;;;7.68;4.13;;;30.40;65.70;;;;;;5021872;28;20502;-83
2021/06/14 09:57:58;;;;;;;8.23;4.10;;;30.80;65.50;;;;;;5019753;28;20030;-84
2021/06/14 10:03:11;;;;;;;6.60;3.85;;;31.70;63.30;;;;;;5001565;28;20045;-82
2021/06/14 10:06:11;;;;;;;7.35;4.22;;;32.00;61.20;;;;;;5015668;28;20033;-84
2021/06/14 10:08:46;;;;;;;6.80;3.60;;;32.00;59.70;;;;;;5015224;28;20054;-83
2021/06/14 10:11:19;;;;;;;7.97;3.45;;;32.30;58.30;;;;;;5015867;28;20026;-83
2021/06/14 10:13:53;;;;;;;;;;;32.30;57.30;;;;;;5016498;28;20540;-83
2021/06/14 10:16:25;;;;;;;7.25;4.00;;;32.40;55.40;;;;;;5013798;28;19928;-83
2021/06/14 10:18:58;;;;;;;6.43;3.75;;;32.50;55.40;;;;;;4995878;28;20044;-82
2021/06/14 10:21:29;;;;;;;7.22;4.28;;;32.50;54.30;;;;;;5013960;28;20025;-84
2021/06/14 10:24:00;;;;;;;5.88;3.67;;;32.40;53.70;;;;;;5021106;28;20026;-84
2021/06/14 10:26:27;;;;;;;10.90;4.55;;;32.60;54.00;;;;;;5037564;28;20014;-84
2021/06/14 10:28:54;;;;;;;5.60;3.38;;;32.60;52.70;;;;;;5016344;28;20417;-83
2021/06/14 10:31:48;;;;;;;6.38;3.53;;;32.80;53.10;;;;;;5013527;28;20370;-86
2021/06/14 10:37:25;;;;;;;;;;;;;;;;;;;;;
2021/06/14 10:39:55;;;;;;;6.68;3.50;;;33.50;52.60;;;;;;5010538;28;20040;-84
2021/06/14 10:42:26;;;;;;;6.45;3.55;;;33.80;52.20;;;;;;4999014;28;20026;-84
2021/06/14 10:48:08;;;;;;;6.20;4.00;;;34.00;51.30;;;;;;4970947;28;20024;-83
2021/06/14 10:50:43;;;;;;;6.38;3.00;;;34.00;51.00;;;;;;4989632;28;20026;-83
2021/06/14 10:53:29;;;;;;;5.32;2.95;;;34.20;51.00;;;;;;4987321;28;20026;-83
2021/06/14 10:56:11;;;;;;;;;;;;;;;;;;;;;
2021/06/14 11:01:35;;;;;;;7.43;3.95;;;34.70;48.60;;;;;;5000869;28;20042;-83
2021/06/14 11:04:07;;;;;;;5.88;3.50;;;34.50;48.20;;;;;;4997518;28;20116;-83
2021/06/14 11:06:51;;;;;;;5.07;2.57;;;34.60;48.20;;;;;;4997219;28;20026;-83
2021/06/14 11:09:46;;;;;;;6.47;3.70;;;34.90;49.10;;;;;;5007036;28;20053;-85
2021/06/14 11:12:39;;;;;;;;;;;;;;;;;;;;;
2021/06/14 11:15:11;;;;;;;5.53;2.88;;;35.50;48.20;;;;;;4998568;28;20369;-83
2021/06/14 11:20:35;;;;;;;8.25;4.38;;;35.50;47.90;;;;;;5013959;28;20096;-84
2021/06/14 11:23:27;;;;;;;;;;;;;;;;;;;;;
2021/06/14 11:25:59;;;;;;;10.70;4.38;;;35.20;47.70;;;;;;5014939;28;20018;-84
2021/06/14 11:28:33;;;;;;;6.95;3.55;;;35.20;47.50;;;;;;4996886;28;20092;-84
2021/06/14 11:31:32;;;;;;;;;;;;;;;;;;;;;
2021/06/14 11:34:02;;;;;;;4.22;2.72;;;35.30;47.80;;;;;;5008207;28;20029;-85
2021/06/14 11:39:49;;;;;;;7.25;3.63;;;35.60;47.30;;;;;;5015261;28;20033;-86
2021/06/14 11:42:28;;;;;;;4.70;2.55;;;35.50;45.90;;;;;;5018421;28;20533;-85
2021/06/14 11:45:09;;;;;;;6.38;3.42;;;35.50;46.90;;;;;;5005301;28;20029;-85
2021/06/14 11:47:43;;;;;;;7.18;3.03;;;35.80;46.50;;;;;;4987192;28;20046;-86
2021/06/14 11:58:36;;;;;;;;;;;;;;;;;;;;;
2021/06/14 12:05:09;;;;;;;5.97;2.97;;;36.20;46.30;;;;;;4871433;29;20497;-86
2021/06/14 12:11:40;;;;;;;6.50;2.60;;;35.80;45.80;;;;;;4868603;29;20029;-85
2021/06/14 12:15:07;;;;;;;;;;;;;;;;;;;;;
2021/06/14 12:18:38;;;;;;;5.05;2.88;;;36.40;46.60;;;;;;4926680;28;20039;-86
2021/06/14 12:32:41;;;;;;;4.57;2.80;;;36.60;45.30;;;;;;4787413;29;20042;-86
2021/06/14 13:00:09;;;;;;;2.58;2.08;;;37.40;45.00;;;;;;4721211;30;20091;-87
2021/06/14 13:09:07;;;;;;;4.28;2.22;;;37.50;44.70;;;;;;4803815;29;20468;-85
2021/06/14 13:18:57;;;;;;;;;;;;;;;;;;;;;
2021/06/14 13:22:21;;;;;;;5.18;2.17;;;38.30;43.90;;;;;;4860324;28;20033;-86
2021/06/14 13:32:21;;;;;;;;;;;;;;;;;;;;;
2021/06/14 13:35:01;;;;;;;4.13;2.22;;;37.30;42.20;;;;;;4939338;28;20041;-87
2021/06/14 13:38:21;;;;;;;;;;;;;;;;;;;;;
2021/06/14 13:45:18;;;;;;;;;;;;;;;;;;;;;
2021/06/14 13:57:59;;;;;;;;;;;;;;;;;;;;;
2021/06/14 14:08:27;;;;;;;3.35;1.80;;;37.60;41.60;;;;;;4843994;29;20044;-87
2021/06/14 14:12:13;;;;;;;;;;;;;;;;;;;;;
2021/06/14 14:40:01;;;;;;;;;;;;;;;;;;;;;
2021/06/14 15:01:12;;;;;;;7.00;4.70;;;36.70;40.60;;;;;;4699602;30;20049;-88
2021/06/14 15:03:45;;;;;;;4.10;3.03;;;36.90;41.20;;;;;;4731867;30;20063;-88
2021/06/14 15:09:47;;;;;;;3.85;2.50;;;36.80;40.70;;;;;;4785305;29;20039;-88
2021/06/14 15:12:56;;;;;;;3.58;2.20;;;36.90;41.00;;;;;;4783757;30;20049;-87
2021/06/14 15:16:11;;;;;;;;;;;;;;;;;;;;;
2021/06/14 15:19:26;;;;;;;4.85;3.58;;;36.80;40.70;;;;;;4805797;29;20064;-86
2021/06/14 15:25:26;;;;;;;4.47;3.20;;;36.50;41.20;;;;;;4802156;29;20611;-87
2021/06/14 15:28:17;;;;;;;5.10;2.75;;;36.30;41.60;;;;;;4800959;29;20479;-87
2021/06/14 15:30:56;;;;;;;6.93;3.85;;;36.10;42.00;;;;;;4838318;29;20513;-86
2021/06/14 15:34:13;;;;;;;;;;;;;;;;;;;;;
2021/06/14 15:37:00;;;;;;;4.97;3.13;;;35.80;42.20;;;;;;4912877;29;20405;-86
2021/06/14 15:40:16;;;;;;;;;;;;;;;;;;;;;
2021/06/14 15:43:08;;;;;;;;;;;;;;;;;;;;;
2021/06/14 15:46:23;;;;;;;5.07;2.45;;;34.60;42.00;;;;;;4957715;28;20082;-86
2021/06/14 15:49:58;;;;;;;;;;;;;;;;;;;;;
2021/06/14 15:53:15;;;;;;;;;;;;;;;;;;;;;
2021/06/14 15:55:54;;;;;;;7.57;5.57;;;34.70;42.70;;;;;;5005994;28;20033;-87
2021/06/14 16:02:01;;;;;;;;;;;;;;;;;;;;;
2021/06/14 16:11:44;;;;;;;3.53;1.80;;;34.30;42.60;;;;;;4902111;29;20070;-87
2021/06/14 16:14:24;;;;;;;3.55;1.70;;;34.10;42.60;;;;;;4900285;29;20505;-86
2021/06/14 16:17:34;;;;;;;5.07;1.67;;;33.80;42.90;;;;;;4895902;29;20486;-86
2021/06/14 16:20:19;;;;;;;2.03;1.30;;;33.60;43.00;;;;;;4897483;29;20141;-87
2021/06/14 16:23:07;;;;;;;;;;;;;;;;;;;;;
2021/06/14 16:25:55;;;;;;;3.67;1.60;;;33.40;43.90;;;;;;4921092;29;20031;-88
2021/06/14 16:29:35;;;;;;;;;;;;;;;;;;;;;
2021/06/14 16:38:20;;;;;;;2.90;1.70;;;32.30;44.50;;;;;;4919703;29;20054;-85
2021/06/14 16:41:33;;;;;;;3.53;2.00;;;32.30;44.70;;;;;;4915283;29;20045;-85
2021/06/14 16:44:48;;;;;;;3.72;2.08;;;32.10;44.90;;;;;;4916028;28;20026;-86
2021/06/14 16:47:27;;;;;;;;;;;;;;;;;;;;;
2021/06/14 16:50:08;;;;;;;;;;;;;;;;;;;;;
2021/06/14 16:52:58;;;;;;;;;;;;;;;;;;;;;
2021/06/14 16:56:10;;;;;;;5.03;1.75;;;31.90;46.20;;;;;;4986554;28;20044;-86
2021/06/14 16:59:21;;;;;;;;;;;;;;;;;;;;;
2021/06/14 17:01:57;;;;;;;4.78;1.95;;;31.60;46.50;;;;;;5000666;28;20050;-87
2021/06/14 17:05:03;;;;;;;;;;;;;;;;;;;;;
2021/06/14 17:08:08;;;;;;;;;;;;;;;;;;;;;
2021/06/14 17:11:04;;;;;;;;;;;;;;;;;;;;;
2021/06/14 17:13:51;;;;;;;4.78;2.67;;;31.20;48.90;;;;;;5003226;28;20023;-86
2021/06/14 17:16:26;;;;;;;3.35;1.98;;;31.10;49.50;;;;;;4981826;28;20487;-85
2021/06/14 17:19:03;;;;;;;;;;;;;;;;;;;;;
2021/06/14 17:21:35;;;;;;;4.47;2.63;;;30.90;50.40;;;;;;4999776;28;20037;-85
2021/06/14 17:27:23;;;;;;;4.15;2.30;;;30.80;50.30;;;;;;5018958;28;20041;-84
2021/06/14 17:30:06;;;;;;;;;;;;;;;;;;;;;
2021/06/14 17:33:15;;;;;;;5.60;2.40;;;30.50;51.00;;;;;;5006613;28;20026;-85
2021/06/14 17:36:00;;;;;;;5.03;2.47;;;30.40;51.10;;;;;;4925663;29;20662;-84
2021/06/14 17:41:38;;;;;;;5.03;2.55;;;30.30;51.50;;;;;;4986945;28;20038;-85
2021/06/14 17:44:09;;;;;;;5.43;2.40;;;30.20;51.80;;;;;;5003890;28;20068;-86
2021/06/14 17:46:40;;;;;;;4.75;2.25;;;30.10;52.10;;;;;;5003803;28;20045;-86
2021/06/14 17:49:06;;;;;;;3.88;2.25;;;30.00;52.10;;;;;;4983105;28;20825;-85
2021/06/14 17:51:35;;;;;;;6.22;2.15;;;29.80;52.00;;;;;;4992437;28;20049;-85
2021/06/14 17:54:24;;;;;;;6.05;2.67;;;29.60;52.10;;;;;;4983992;28;20026;-83
2021/06/14 17:56:50;;;;;;;5.18;2.50;;;29.40;52.10;;;;;;4963002;28;20041;-83
2021/06/14 17:59:46;;;;;;;;;;;;;;;;;;;;;
2021/06/14 18:02:43;;;;;;;;;;;;;;;;;;;;;
2021/06/14 18:05:17;;;;;;;3.88;2.10;;;28.90;53.10;;;;;;4996209;28;20748;-83